sensor_id;sensor_type;location;lat;lon;timestamp;P1;durP1;ratioP1;P2;durP2;ratioP2
8861;SDS011;4799;50.996;4.754;2022-11-15T00:00:24;27.77;;;25.00;;
8861;SDS011;4799;50.996;4.754;2022-11-15T00:02:53;29.30;;;26.30;;
8861;SDS011;4799;50.996;4.754;2022-11-15T00:05:20;29.53;;;26.33;;
8861;SDS011;4799;50.996;4.754;2022-11-15T00:07:46;28.93;;;25.93;;
8861;SDS011;4799;50.996;4.754;2022-11-15T00:10:12;30.07;;;26.47;;
8861;SDS011;4799;50.996;4.754;2022-11-15T00:12:38;31.63;;;28.27;;
8861;SDS011;4799;50.996;4.754;2022-11-15T00:15:04;31.47;;;28.07;;
8861;SDS011;4799;50.996;4.754;2022-11-15T00:17:30;30.37;;;27.23;;
8861;SDS011;4799;50.996;4.754;2022-11-15T00:19:56;30.50;;;27.10;;
8861;SDS011;4799;50.996;4.754;2022-11-15T00:22:21;27.40;;;24.67;;
8861;SDS011;4799;50.996;4.754;2022-11-15T00:24:47;27.77;;;25.00;;
8861;SDS011;4799;50.996;4.754;2022-11-15T00:27:13;28.07;;;25.07;;
8861;SDS011;4799;50.996;4.754;2022-11-15T00:29:39;32.27;;;28.87;;
8861;SDS011;4799;50.996;4.754;2022-11-15T00:32:09;28.70;;;25.67;;
8861;SDS011;4799;50.996;4.754;2022-11-15T00:34:35;27.33;;;24.53;;
8861;SDS011;4799;50.996;4.754;2022-11-15T00:37:01;26.17;;;23.47;;
8861;SDS011;4799;50.996;4.754;2022-11-15T00:39:26;30.97;;;27.73;;
8861;SDS011;4799;50.996;4.754;2022-11-15T00:41:52;29.13;;;25.97;;
8861;SDS011;4799;50.996;4.754;2022-11-15T00:44:18;29.27;;;26.17;;
8861;SDS011;4799;50.996;4.754;2022-11-15T00:46:44;31.87;;;27.67;;
8861;SDS011;4799;50.996;4.754;2022-11-15T00:49:09;28.97;;;25.93;;
8861;SDS011;4799;50.996;4.754;2022-11-15T00:51:35;30.73;;;27.63;;
8861;SDS011;4799;50.996;4.754;2022-11-15T00:54:01;29.60;;;26.50;;
8861;SDS011;4799;50.996;4.754;2022-11-15T00:56:26;31.40;;;27.97;;
8861;SDS011;4799;50.996;4.754;2022-11-15T00:58:52;30.80;;;27.60;;
8861;SDS011;4799;50.996;4.754;2022-11-15T01:01:18;28.20;;;25.37;;
8861;SDS011;4799;50.996;4.754;2022-11-15T01:03:44;30.13;;;27.03;;
8861;SDS011;4799;50.996;4.754;2022-11-15T01:06:10;30.20;;;27.13;;
8861;SDS011;4799;50.996;4.754;2022-11-15T01:08:40;29.80;;;26.67;;
8861;SDS011;4799;50.996;4.754;2022-11-15T01:11:07;30.83;;;27.63;;
8861;SDS011;4799;50.996;4.754;2022-11-15T01:13:36;30.30;;;27.23;;
8861;SDS011;4799;50.996;4.754;2022-11-15T01:16:06;30.63;;;27.43;;
8861;SDS011;4799;50.996;4.754;2022-11-15T01:18:34;30.40;;;27.30;;
8861;SDS011;4799;50.996;4.754;2022-11-15T01:21:00;28.97;;;26.07;;
8861;SDS011;4799;50.996;4.754;2022-11-15T01:23:33;30.37;;;27.10;;
8861;SDS011;4799;50.996;4.754;2022-11-15T01:25:59;29.27;;;26.37;;
8861;SDS011;4799;50.996;4.754;2022-11-15T01:28:29;30.73;;;27.43;;
8861;SDS011;4799;50.996;4.754;2022-11-15T01:30:59;30.37;;;27.17;;
8861;SDS011;4799;50.996;4.754;2022-11-15T01:33:26;31.27;;;27.87;;
8861;SDS011;4799;50.996;4.754;2022-11-15T01:35:52;29.63;;;26.10;;
8861;SDS011;4799;50.996;4.754;2022-11-15T01:38:18;29.47;;;26.57;;
8861;SDS011;4799;50.996;4.754;2022-11-15T01:40:43;29.13;;;26.03;;
8861;SDS011;4799;50.996;4.754;2022-11-15T01:45:52;30.60;;;27.57;;
8861;SDS011;4799;50.996;4.754;2022-11-15T01:48:25;29.50;;;26.60;;
8861;SDS011;4799;50.996;4.754;2022-11-15T01:50:58;28.90;;;26.07;;
8861;SDS011;4799;50.996;4.754;2022-11-15T01:53:26;29.53;;;26.43;;
8861;SDS011;4799;50.996;4.754;2022-11-15T01:55:54;29.07;;;26.03;;
8861;SDS011;4799;50.996;4.754;2022-11-15T01:58:21;31.50;;;28.13;;
8861;SDS011;4799;50.996;4.754;2022-11-15T02:00:47;31.53;;;28.10;;
8861;SDS011;4799;50.996;4.754;2022-11-15T02:03:14;31.00;;;27.70;;
8861;SDS011;4799;50.996;4.754;2022-11-15T02:05:40;30.70;;;27.00;;
8861;SDS011;4799;50.996;4.754;2022-11-15T02:08:08;28.83;;;25.83;;
8861;SDS011;4799;50.996;4.754;2022-11-15T02:10:45;31.73;;;28.57;;
8861;SDS011;4799;50.996;4.754;2022-11-15T02:13:12;30.40;;;27.03;;
8861;SDS011;4799;50.996;4.754;2022-11-15T02:15:53;30.40;;;27.30;;
8861;SDS011;4799;50.996;4.754;2022-11-15T02:18:32;29.53;;;26.53;;
8861;SDS011;4799;50.996;4.754;2022-11-15T02:21:03;29.43;;;26.43;;
8861;SDS011;4799;50.996;4.754;2022-11-15T02:29:10;27.87;;;24.93;;
8861;SDS011;4799;50.996;4.754;2022-11-15T02:31:46;29.27;;;26.00;;
8861;SDS011;4799;50.996;4.754;2022-11-15T02:34:28;29.17;;;25.97;;
8861;SDS011;4799;50.996;4.754;2022-11-15T02:42:30;30.87;;;27.10;;
8861;SDS011;4799;50.996;4.754;2022-11-15T02:45:21;32.23;;;28.83;;
8861;SDS011;4799;50.996;4.754;2022-11-15T02:48:00;30.63;;;27.27;;
8861;SDS011;4799;50.996;4.754;2022-11-15T02:50:29;29.80;;;26.67;;
8861;SDS011;4799;50.996;4.754;2022-11-15T02:52:56;33.73;;;28.93;;
8861;SDS011;4799;50.996;4.754;2022-11-15T02:55:26;34.67;;;29.23;;
8861;SDS011;4799;50.996;4.754;2022-11-15T03:00:50;30.53;;;27.30;;
8861;SDS011;4799;50.996;4.754;2022-11-15T03:06:21;32.60;;;29.17;;
8861;SDS011;4799;50.996;4.754;2022-11-15T03:11:41;31.40;;;28.13;;
8861;SDS011;4799;50.996;4.754;2022-11-15T03:14:21;31.43;;;27.80;;
8861;SDS011;4799;50.996;4.754;2022-11-15T03:19:54;32.50;;;28.47;;
8861;SDS011;4799;50.996;4.754;2022-11-15T03:22:23;30.33;;;27.03;;
8861;SDS011;4799;50.996;4.754;2022-11-15T03:25:02;30.33;;;27.00;;
8861;SDS011;4799;50.996;4.754;2022-11-15T03:27:33;30.70;;;27.43;;
8861;SDS011;4799;50.996;4.754;2022-11-15T03:30:04;31.47;;;28.13;;
8861;SDS011;4799;50.996;4.754;2022-11-15T03:32:34;33.10;;;29.50;;
8861;SDS011;4799;50.996;4.754;2022-11-15T03:40:06;30.30;;;27.10;;
8861;SDS011;4799;50.996;4.754;2022-11-15T03:42:38;32.20;;;28.63;;
8861;SDS011;4799;50.996;4.754;2022-11-15T03:45:18;30.40;;;27.23;;
8861;SDS011;4799;50.996;4.754;2022-11-15T03:47:49;27.60;;;24.63;;
8861;SDS011;4799;50.996;4.754;2022-11-15T03:50:20;30.47;;;27.57;;
8861;SDS011;4799;50.996;4.754;2022-11-15T03:52:48;32.37;;;28.80;;
8861;SDS011;4799;50.996;4.754;2022-11-15T03:55:16;31.43;;;28.03;;
8861;SDS011;4799;50.996;4.754;2022-11-15T03:57:43;32.07;;;28.50;;
8861;SDS011;4799;50.996;4.754;2022-11-15T04:00:09;29.97;;;26.87;;
8861;SDS011;4799;50.996;4.754;2022-11-15T04:02:36;30.10;;;26.83;;
8861;SDS011;4799;50.996;4.754;2022-11-15T04:05:02;30.80;;;27.50;;
8861;SDS011;4799;50.996;4.754;2022-11-15T04:07:28;29.90;;;26.67;;
8861;SDS011;4799;50.996;4.754;2022-11-15T04:09:53;28.60;;;25.43;;
8861;SDS011;4799;50.996;4.754;2022-11-15T04:12:29;29.70;;;26.33;;
8861;SDS011;4799;50.996;4.754;2022-11-15T04:15:05;30.93;;;27.63;;
8861;SDS011;4799;50.996;4.754;2022-11-15T04:17:43;33.37;;;29.87;;
8861;SDS011;4799;50.996;4.754;2022-11-15T04:20:20;30.13;;;26.77;;
8861;SDS011;4799;50.996;4.754;2022-11-15T04:23:07;29.60;;;26.47;;
8861;SDS011;4799;50.996;4.754;2022-11-15T04:25:54;31.77;;;28.37;;
8861;SDS011;4799;50.996;4.754;2022-11-15T04:28:21;27.80;;;24.90;;
8861;SDS011;4799;50.996;4.754;2022-11-15T04:30:47;28.17;;;25.10;;
8861;SDS011;4799;50.996;4.754;2022-11-15T04:33:13;29.77;;;25.87;;
8861;SDS011;4799;50.996;4.754;2022-11-15T04:35:39;25.57;;;23.03;;
8861;SDS011;4799;50.996;4.754;2022-11-15T04:38:06;27.20;;;24.43;;
8861;SDS011;4799;50.996;4.754;2022-11-15T04:40:33;26.90;;;24.00;;
8861;SDS011;4799;50.996;4.754;2022-11-15T04:43:00;24.67;;;22.17;;
8861;SDS011;4799;50.996;4.754;2022-11-15T04:45:25;23.80;;;21.37;;
8861;SDS011;4799;50.996;4.754;2022-11-15T04:47:51;23.73;;;21.33;;
8861;SDS011;4799;50.996;4.754;2022-11-15T04:50:17;27.37;;;21.70;;
8861;SDS011;4799;50.996;4.754;2022-11-15T04:52:44;24.30;;;21.70;;
8861;SDS011;4799;50.996;4.754;2022-11-15T04:55:16;23.40;;;20.43;;
8861;SDS011;4799;50.996;4.754;2022-11-15T04:57:42;24.53;;;22.00;;
8861;SDS011;4799;50.996;4.754;2022-11-15T05:00:09;21.03;;;18.83;;
8861;SDS011;4799;50.996;4.754;2022-11-15T05:02:37;23.27;;;20.63;;
8861;SDS011;4799;50.996;4.754;2022-11-15T05:05:21;28.73;;;22.20;;
8861;SDS011;4799;50.996;4.754;2022-11-15T05:07:46;30.67;;;25.07;;
8861;SDS011;4799;50.996;4.754;2022-11-15T05:10:12;25.97;;;22.53;;
8861;SDS011;4799;50.996;4.754;2022-11-15T05:12:38;24.53;;;22.00;;
8861;SDS011;4799;50.996;4.754;2022-11-15T05:15:04;22.83;;;19.93;;
8861;SDS011;4799;50.996;4.754;2022-11-15T05:17:30;21.30;;;19.10;;
8861;SDS011;4799;50.996;4.754;2022-11-15T05:19:56;20.40;;;18.30;;
8861;SDS011;4799;50.996;4.754;2022-11-15T05:22:22;21.97;;;18.30;;
8861;SDS011;4799;50.996;4.754;2022-11-15T05:24:48;18.83;;;16.93;;
8861;SDS011;4799;50.996;4.754;2022-11-15T05:27:13;18.77;;;16.50;;
8861;SDS011;4799;50.996;4.754;2022-11-15T05:29:39;17.67;;;15.77;;
8861;SDS011;4799;50.996;4.754;2022-11-15T05:32:05;18.00;;;16.10;;
8861;SDS011;4799;50.996;4.754;2022-11-15T05:34:33;17.10;;;15.27;;
8861;SDS011;4799;50.996;4.754;2022-11-15T05:36:59;16.90;;;15.17;;
8861;SDS011;4799;50.996;4.754;2022-11-15T05:39:24;15.70;;;14.17;;
8861;SDS011;4799;50.996;4.754;2022-11-15T05:41:52;14.93;;;13.47;;
8861;SDS011;4799;50.996;4.754;2022-11-15T05:44:25;17.00;;;14.23;;
8861;SDS011;4799;50.996;4.754;2022-11-15T05:46:51;15.93;;;14.43;;
8861;SDS011;4799;50.996;4.754;2022-11-15T05:49:19;15.90;;;14.30;;
8861;SDS011;4799;50.996;4.754;2022-11-15T05:51:48;16.37;;;14.67;;
8861;SDS011;4799;50.996;4.754;2022-11-15T05:54:16;14.67;;;13.13;;
8861;SDS011;4799;50.996;4.754;2022-11-15T05:56:44;17.93;;;13.87;;
8861;SDS011;4799;50.996;4.754;2022-11-15T05:59:10;18.67;;;15.43;;
8861;SDS011;4799;50.996;4.754;2022-11-15T06:01:37;15.70;;;14.13;;
8861;SDS011;4799;50.996;4.754;2022-11-15T06:04:03;15.27;;;13.77;;
8861;SDS011;4799;50.996;4.754;2022-11-15T06:06:29;16.63;;;14.37;;
8861;SDS011;4799;50.996;4.754;2022-11-15T06:08:55;17.03;;;13.97;;
8861;SDS011;4799;50.996;4.754;2022-11-15T06:11:21;15.67;;;13.30;;
8861;SDS011;4799;50.996;4.754;2022-11-15T06:13:46;17.07;;;13.60;;
8861;SDS011;4799;50.996;4.754;2022-11-15T06:16:12;13.63;;;12.23;;
8861;SDS011;4799;50.996;4.754;2022-11-15T06:18:38;13.63;;;12.20;;
8861;SDS011;4799;50.996;4.754;2022-11-15T06:21:04;17.73;;;13.80;;
8861;SDS011;4799;50.996;4.754;2022-11-15T06:23:33;13.33;;;11.83;;
8861;SDS011;4799;50.996;4.754;2022-11-15T06:26:00;14.37;;;12.87;;
8861;SDS011;4799;50.996;4.754;2022-11-15T06:28:30;13.77;;;12.23;;
8861;SDS011;4799;50.996;4.754;2022-11-15T06:31:04;13.03;;;11.63;;
8861;SDS011;4799;50.996;4.754;2022-11-15T06:33:31;14.20;;;11.67;;
8861;SDS011;4799;50.996;4.754;2022-11-15T06:36:03;13.67;;;11.10;;
8861;SDS011;4799;50.996;4.754;2022-11-15T06:38:31;13.20;;;11.90;;
8861;SDS011;4799;50.996;4.754;2022-11-15T06:41:01;12.63;;;10.83;;
8861;SDS011;4799;50.996;4.754;2022-11-15T06:43:31;14.37;;;12.10;;
8861;SDS011;4799;50.996;4.754;2022-11-15T06:45:58;16.80;;;11.90;;
8861;SDS011;4799;50.996;4.754;2022-11-15T06:48:25;16.23;;;12.13;;
8861;SDS011;4799;50.996;4.754;2022-11-15T06:50:52;16.10;;;11.57;;
8861;SDS011;4799;50.996;4.754;2022-11-15T06:53:18;16.57;;;13.07;;
8861;SDS011;4799;50.996;4.754;2022-11-15T06:55:44;14.87;;;12.47;;
8861;SDS011;4799;50.996;4.754;2022-11-15T06:58:10;15.27;;;12.87;;
8861;SDS011;4799;50.996;4.754;2022-11-15T07:00:36;16.60;;;14.27;;
8861;SDS011;4799;50.996;4.754;2022-11-15T07:03:02;13.70;;;12.30;;
8861;SDS011;4799;50.996;4.754;2022-11-15T07:05:28;16.77;;;14.20;;
8861;SDS011;4799;50.996;4.754;2022-11-15T07:07:54;15.13;;;13.17;;
8861;SDS011;4799;50.996;4.754;2022-11-15T07:10:21;15.13;;;13.57;;
8861;SDS011;4799;50.996;4.754;2022-11-15T07:12:49;15.93;;;14.23;;
8861;SDS011;4799;50.996;4.754;2022-11-15T07:15:16;21.47;;;15.17;;
8861;SDS011;4799;50.996;4.754;2022-11-15T07:17:43;18.03;;;15.50;;
8861;SDS011;4799;50.996;4.754;2022-11-15T07:20:09;18.07;;;13.77;;
8861;SDS011;4799;50.996;4.754;2022-11-15T07:22:35;17.83;;;14.23;;
8861;SDS011;4799;50.996;4.754;2022-11-15T07:25:01;15.67;;;14.00;;
8861;SDS011;4799;50.996;4.754;2022-11-15T07:27:27;16.03;;;14.33;;
8861;SDS011;4799;50.996;4.754;2022-11-15T07:29:53;16.93;;;13.87;;
8861;SDS011;4799;50.996;4.754;2022-11-15T07:32:18;17.17;;;14.40;;
8861;SDS011;4799;50.996;4.754;2022-11-15T07:34:44;15.97;;;13.40;;
8861;SDS011;4799;50.996;4.754;2022-11-15T07:37:11;15.43;;;13.77;;
8861;SDS011;4799;50.996;4.754;2022-11-15T07:39:37;16.33;;;14.50;;
8861;SDS011;4799;50.996;4.754;2022-11-15T07:42:03;16.20;;;13.33;;
8861;SDS011;4799;50.996;4.754;2022-11-15T07:44:47;13.27;;;11.87;;
8861;SDS011;4799;50.996;4.754;2022-11-15T07:47:13;15.17;;;12.47;;
8861;SDS011;4799;50.996;4.754;2022-11-15T07:49:39;11.90;;;10.53;;
8861;SDS011;4799;50.996;4.754;2022-11-15T07:52:05;10.83;;;9.40;;
8861;SDS011;4799;50.996;4.754;2022-11-15T07:54:30;11.03;;;9.80;;
8861;SDS011;4799;50.996;4.754;2022-11-15T07:56:56;10.20;;;8.97;;
8861;SDS011;4799;50.996;4.754;2022-11-15T07:59:22;9.77;;;8.87;;
8861;SDS011;4799;50.996;4.754;2022-11-15T08:01:48;11.77;;;9.53;;
8861;SDS011;4799;50.996;4.754;2022-11-15T08:04:13;9.77;;;8.83;;
8861;SDS011;4799;50.996;4.754;2022-11-15T08:06:39;8.63;;;7.83;;
8861;SDS011;4799;50.996;4.754;2022-11-15T08:09:05;10.17;;;7.70;;
8861;SDS011;4799;50.996;4.754;2022-11-15T08:11:31;9.63;;;7.50;;
8861;SDS011;4799;50.996;4.754;2022-11-15T08:13:56;8.83;;;7.33;;
8861;SDS011;4799;50.996;4.754;2022-11-15T08:16:22;9.77;;;8.23;;
8861;SDS011;4799;50.996;4.754;2022-11-15T08:18:48;9.77;;;8.20;;
8861;SDS011;4799;50.996;4.754;2022-11-15T08:21:14;10.50;;;8.47;;
8861;SDS011;4799;50.996;4.754;2022-11-15T08:23:44;8.40;;;7.47;;
8861;SDS011;4799;50.996;4.754;2022-11-15T08:26:10;8.67;;;6.77;;
8861;SDS011;4799;50.996;4.754;2022-11-15T08:28:35;8.47;;;6.50;;
8861;SDS011;4799;50.996;4.754;2022-11-15T08:31:02;7.80;;;5.57;;
8861;SDS011;4799;50.996;4.754;2022-11-15T08:33:28;7.80;;;5.40;;
8861;SDS011;4799;50.996;4.754;2022-11-15T08:35:58;7.07;;;4.83;;
8861;SDS011;4799;50.996;4.754;2022-11-15T08:38:25;7.60;;;4.20;;
8861;SDS011;4799;50.996;4.754;2022-11-15T08:40:51;7.03;;;3.97;;
8861;SDS011;4799;50.996;4.754;2022-11-15T08:43:19;5.00;;;3.47;;
8861;SDS011;4799;50.996;4.754;2022-11-15T08:45:44;6.20;;;3.20;;
8861;SDS011;4799;50.996;4.754;2022-11-15T08:48:11;2.80;;;2.50;;
8861;SDS011;4799;50.996;4.754;2022-11-15T08:50:36;3.63;;;2.57;;
8861;SDS011;4799;50.996;4.754;2022-11-15T08:53:06;3.37;;;2.27;;
8861;SDS011;4799;50.996;4.754;2022-11-15T08:55:36;4.13;;;2.20;;
8861;SDS011;4799;50.996;4.754;2022-11-15T08:58:02;5.27;;;2.60;;
8861;SDS011;4799;50.996;4.754;2022-11-15T09:00:28;4.43;;;2.43;;
8861;SDS011;4799;50.996;4.754;2022-11-15T09:02:54;4.57;;;2.33;;
8861;SDS011;4799;50.996;4.754;2022-11-15T09:05:20;4.87;;;2.17;;
8861;SDS011;4799;50.996;4.754;2022-11-15T09:07:46;3.93;;;2.00;;
8861;SDS011;4799;50.996;4.754;2022-11-15T09:10:12;5.80;;;2.20;;
8861;SDS011;4799;50.996;4.754;2022-11-15T09:12:37;6.40;;;1.83;;
8861;SDS011;4799;50.996;4.754;2022-11-15T09:15:04;5.83;;;1.80;;
8861;SDS011;4799;50.996;4.754;2022-11-15T09:17:30;5.80;;;1.80;;
8861;SDS011;4799;50.996;4.754;2022-11-15T09:19:56;3.63;;;2.00;;
8861;SDS011;4799;50.996;4.754;2022-11-15T09:22:22;7.13;;;2.03;;
8861;SDS011;4799;50.996;4.754;2022-11-15T09:24:47;4.43;;;2.00;;
8861;SDS011;4799;50.996;4.754;2022-11-15T09:27:13;5.37;;;2.10;;
8861;SDS011;4799;50.996;4.754;2022-11-15T09:29:39;3.90;;;1.73;;
8861;SDS011;4799;50.996;4.754;2022-11-15T09:32:05;4.17;;;1.83;;
8861;SDS011;4799;50.996;4.754;2022-11-15T09:34:30;7.50;;;2.00;;
8861;SDS011;4799;50.996;4.754;2022-11-15T09:36:56;5.00;;;1.60;;
8861;SDS011;4799;50.996;4.754;2022-11-15T09:39:22;4.63;;;2.27;;
8861;SDS011;4799;50.996;4.754;2022-11-15T09:41:55;5.70;;;1.87;;
8861;SDS011;4799;50.996;4.754;2022-11-15T09:47:32;4.17;;;1.63;;
8861;SDS011;4799;50.996;4.754;2022-11-15T09:50:12;4.50;;;1.90;;
8861;SDS011;4799;50.996;4.754;2022-11-15T09:52:42;3.10;;;1.40;;
8861;SDS011;4799;50.996;4.754;2022-11-15T09:55:10;3.37;;;1.70;;
8861;SDS011;4799;50.996;4.754;2022-11-15T09:57:46;5.30;;;1.80;;
8861;SDS011;4799;50.996;4.754;2022-11-15T10:00:25;4.50;;;1.60;;
8861;SDS011;4799;50.996;4.754;2022-11-15T10:03:13;3.70;;;1.50;;
8861;SDS011;4799;50.996;4.754;2022-11-15T10:05:42;4.07;;;1.60;;
8861;SDS011;4799;50.996;4.754;2022-11-15T10:10:43;4.13;;;1.73;;
8861;SDS011;4799;50.996;4.754;2022-11-15T10:13:13;5.17;;;1.93;;
8861;SDS011;4799;50.996;4.754;2022-11-15T10:15:50;6.07;;;1.83;;
8861;SDS011;4799;50.996;4.754;2022-11-15T10:18:24;3.23;;;1.60;;
8861;SDS011;4799;50.996;4.754;2022-11-15T10:21:20;3.80;;;1.70;;
8861;SDS011;4799;50.996;4.754;2022-11-15T10:23:49;2.20;;;1.50;;
8861;SDS011;4799;50.996;4.754;2022-11-15T10:26:16;4.97;;;1.60;;
8861;SDS011;4799;50.996;4.754;2022-11-15T10:28:42;5.97;;;1.50;;
8861;SDS011;4799;50.996;4.754;2022-11-15T10:31:20;3.53;;;1.50;;
8861;SDS011;4799;50.996;4.754;2022-11-15T10:33:48;4.17;;;1.50;;
8861;SDS011;4799;50.996;4.754;2022-11-15T10:36:19;5.10;;;1.70;;
8861;SDS011;4799;50.996;4.754;2022-11-15T10:49:21;5.20;;;1.43;;
8861;SDS011;4799;50.996;4.754;2022-11-15T10:54:45;5.80;;;1.77;;
8861;SDS011;4799;50.996;4.754;2022-11-15T10:57:31;6.03;;;1.50;;
8861;SDS011;4799;50.996;4.754;2022-11-15T11:00:02;3.23;;;1.40;;
8861;SDS011;4799;50.996;4.754;2022-11-15T11:05:29;5.37;;;1.60;;
8861;SDS011;4799;50.996;4.754;2022-11-15T11:07:58;3.53;;;1.60;;
8861;SDS011;4799;50.996;4.754;2022-11-15T11:10:26;4.97;;;1.60;;
8861;SDS011;4799;50.996;4.754;2022-11-15T11:12:52;5.47;;;1.60;;
8861;SDS011;4799;50.996;4.754;2022-11-15T11:15:18;4.10;;;1.80;;
8861;SDS011;4799;50.996;4.754;2022-11-15T11:23:42;3.97;;;1.47;;
8861;SDS011;4799;50.996;4.754;2022-11-15T11:37:30;4.90;;;1.67;;
8861;SDS011;4799;50.996;4.754;2022-11-15T11:51:45;4.80;;;1.40;;
8861;SDS011;4799;50.996;4.754;2022-11-15T11:54:29;5.73;;;1.33;;
8861;SDS011;4799;50.996;4.754;2022-11-15T11:56:58;3.20;;;1.30;;
8861;SDS011;4799;50.996;4.754;2022-11-15T11:59:33;6.03;;;1.30;;
8861;SDS011;4799;50.996;4.754;2022-11-15T12:02:16;5.43;;;1.60;;
8861;SDS011;4799;50.996;4.754;2022-11-15T12:05:12;3.30;;;1.40;;
8861;SDS011;4799;50.996;4.754;2022-11-15T12:07:43;4.10;;;1.50;;
8861;SDS011;4799;50.996;4.754;2022-11-15T12:12:49;5.00;;;1.60;;
8861;SDS011;4799;50.996;4.754;2022-11-15T12:15:40;4.97;;;1.67;;
8861;SDS011;4799;50.996;4.754;2022-11-15T12:18:14;3.93;;;1.40;;
8861;SDS011;4799;50.996;4.754;2022-11-15T12:20:42;3.57;;;1.50;;
8861;SDS011;4799;50.996;4.754;2022-11-15T12:23:30;4.37;;;1.50;;
8861;SDS011;4799;50.996;4.754;2022-11-15T12:26:10;3.40;;;1.10;;
8861;SDS011;4799;50.996;4.754;2022-11-15T12:28:59;2.67;;;1.43;;
8861;SDS011;4799;50.996;4.754;2022-11-15T12:31:36;5.23;;;1.40;;
8861;SDS011;4799;50.996;4.754;2022-11-15T12:34:28;2.43;;;1.50;;
8861;SDS011;4799;50.996;4.754;2022-11-15T12:36:53;4.13;;;1.40;;
8861;SDS011;4799;50.996;4.754;2022-11-15T12:39:19;4.27;;;1.57;;
8861;SDS011;4799;50.996;4.754;2022-11-15T13:02:35;4.70;;;1.40;;
8861;SDS011;4799;50.996;4.754;2022-11-15T13:23:07;3.77;;;1.40;;
8861;SDS011;4799;50.996;4.754;2022-11-15T13:28:35;3.43;;;1.50;;
8861;SDS011;4799;50.996;4.754;2022-11-15T13:34:14;5.03;;;3.50;;
8861;SDS011;4799;50.996;4.754;2022-11-15T13:36:52;4.37;;;3.07;;
8861;SDS011;4799;50.996;4.754;2022-11-15T13:39:29;4.03;;;2.47;;
8861;SDS011;4799;50.996;4.754;2022-11-15T13:41:56;3.43;;;2.30;;
8861;SDS011;4799;50.996;4.754;2022-11-15T13:44:24;2.90;;;1.43;;
8861;SDS011;4799;50.996;4.754;2022-11-15T13:47:15;4.17;;;1.67;;
8861;SDS011;4799;50.996;4.754;2022-11-15T13:49:43;3.73;;;1.40;;
8861;SDS011;4799;50.996;4.754;2022-11-15T13:52:13;2.20;;;1.30;;
8861;SDS011;4799;50.996;4.754;2022-11-15T13:54:50;1.90;;;1.30;;
8861;SDS011;4799;50.996;4.754;2022-11-15T13:57:25;2.70;;;1.20;;
8861;SDS011;4799;50.996;4.754;2022-11-15T13:59:55;4.70;;;1.50;;
8861;SDS011;4799;50.996;4.754;2022-11-15T14:02:29;5.63;;;1.53;;
8861;SDS011;4799;50.996;4.754;2022-11-15T14:07:52;4.43;;;1.77;;
8861;SDS011;4799;50.996;4.754;2022-11-15T14:10:29;2.30;;;1.50;;
8861;SDS011;4799;50.996;4.754;2022-11-15T14:12:59;3.60;;;1.40;;
8861;SDS011;4799;50.996;4.754;2022-11-15T14:15:38;3.07;;;1.20;;
8861;SDS011;4799;50.996;4.754;2022-11-15T14:18:05;2.40;;;1.40;;
8861;SDS011;4799;50.996;4.754;2022-11-15T14:22:59;2.00;;;1.33;;
8861;SDS011;4799;50.996;4.754;2022-11-15T14:25:33;2.57;;;1.47;;
8861;SDS011;4799;50.996;4.754;2022-11-15T14:28:10;2.10;;;1.20;;
8861;SDS011;4799;50.996;4.754;2022-11-15T14:30:40;2.73;;;1.30;;
8861;SDS011;4799;50.996;4.754;2022-11-15T14:35:51;2.40;;;1.20;;
8861;SDS011;4799;50.996;4.754;2022-11-15T14:38:17;2.20;;;1.43;;
8861;SDS011;4799;50.996;4.754;2022-11-15T14:40:43;2.10;;;1.43;;
8861;SDS011;4799;50.996;4.754;2022-11-15T14:43:10;2.03;;;1.23;;
8861;SDS011;4799;50.996;4.754;2022-11-15T14:45:36;1.80;;;1.40;;
8861;SDS011;4799;50.996;4.754;2022-11-15T14:48:03;4.50;;;1.40;;
8861;SDS011;4799;50.996;4.754;2022-11-15T14:50:28;2.97;;;1.70;;
8861;SDS011;4799;50.996;4.754;2022-11-15T14:52:54;2.90;;;1.40;;
8861;SDS011;4799;50.996;4.754;2022-11-15T14:57:48;1.93;;;1.40;;
8861;SDS011;4799;50.996;4.754;2022-11-15T15:00:14;2.23;;;1.60;;
8861;SDS011;4799;50.996;4.754;2022-11-15T15:02:41;3.50;;;1.40;;
8861;SDS011;4799;50.996;4.754;2022-11-15T15:05:13;2.03;;;1.43;;
8861;SDS011;4799;50.996;4.754;2022-11-15T15:07:40;3.00;;;1.60;;
8861;SDS011;4799;50.996;4.754;2022-11-15T15:10:07;2.30;;;1.67;;
8861;SDS011;4799;50.996;4.754;2022-11-15T15:12:33;2.30;;;1.90;;
8861;SDS011;4799;50.996;4.754;2022-11-15T15:14:59;2.17;;;1.80;;
8861;SDS011;4799;50.996;4.754;2022-11-15T15:17:24;3.20;;;1.87;;
8861;SDS011;4799;50.996;4.754;2022-11-15T15:19:50;4.13;;;2.13;;
8861;SDS011;4799;50.996;4.754;2022-11-15T15:22:17;2.30;;;2.07;;
8861;SDS011;4799;50.996;4.754;2022-11-15T15:24:44;3.17;;;2.20;;
8861;SDS011;4799;50.996;4.754;2022-11-15T15:27:11;4.07;;;2.10;;
8861;SDS011;4799;50.996;4.754;2022-11-15T15:29:37;2.80;;;2.10;;
8861;SDS011;4799;50.996;4.754;2022-11-15T15:32:04;2.30;;;2.00;;
8861;SDS011;4799;50.996;4.754;2022-11-15T15:34:30;3.30;;;2.03;;
8861;SDS011;4799;50.996;4.754;2022-11-15T15:39:58;2.27;;;1.80;;
8861;SDS011;4799;50.996;4.754;2022-11-15T15:42:24;3.50;;;2.10;;
8861;SDS011;4799;50.996;4.754;2022-11-15T15:44:50;3.50;;;2.27;;
8861;SDS011;4799;50.996;4.754;2022-11-15T15:47:20;2.57;;;2.00;;
8861;SDS011;4799;50.996;4.754;2022-11-15T15:49:47;2.30;;;2.10;;
8861;SDS011;4799;50.996;4.754;2022-11-15T15:52:13;3.63;;;2.30;;
8861;SDS011;4799;50.996;4.754;2022-11-15T15:54:39;3.87;;;2.03;;
8861;SDS011;4799;50.996;4.754;2022-11-15T15:57:06;2.70;;;2.07;;
8861;SDS011;4799;50.996;4.754;2022-11-15T15:59:33;2.73;;;2.23;;
8861;SDS011;4799;50.996;4.754;2022-11-15T16:01:58;4.97;;;2.40;;
8861;SDS011;4799;50.996;4.754;2022-11-15T16:04:24;3.60;;;2.30;;
8861;SDS011;4799;50.996;4.754;2022-11-15T16:06:50;4.60;;;2.20;;
8861;SDS011;4799;50.996;4.754;2022-11-15T16:09:18;3.80;;;2.40;;
8861;SDS011;4799;50.996;4.754;2022-11-15T16:12:04;3.60;;;2.47;;
8861;SDS011;4799;50.996;4.754;2022-11-15T16:14:30;3.47;;;2.70;;
8861;SDS011;4799;50.996;4.754;2022-11-15T16:16:57;3.70;;;2.60;;
8861;SDS011;4799;50.996;4.754;2022-11-15T16:19:22;3.63;;;2.60;;
8861;SDS011;4799;50.996;4.754;2022-11-15T16:21:48;3.77;;;2.80;;
8861;SDS011;4799;50.996;4.754;2022-11-15T16:24:14;3.40;;;2.63;;
8861;SDS011;4799;50.996;4.754;2022-11-15T16:26:40;2.50;;;2.30;;
8861;SDS011;4799;50.996;4.754;2022-11-15T16:29:07;2.93;;;2.47;;
8861;SDS011;4799;50.996;4.754;2022-11-15T16:31:34;4.47;;;2.80;;
8861;SDS011;4799;50.996;4.754;2022-11-15T16:34:00;4.83;;;2.63;;
8861;SDS011;4799;50.996;4.754;2022-11-15T16:36:26;4.10;;;2.43;;
8861;SDS011;4799;50.996;4.754;2022-11-15T16:38:55;4.80;;;2.73;;
8861;SDS011;4799;50.996;4.754;2022-11-15T16:41:20;2.70;;;2.50;;
8861;SDS011;4799;50.996;4.754;2022-11-15T16:43:49;3.00;;;2.70;;
8861;SDS011;4799;50.996;4.754;2022-11-15T16:46:22;2.83;;;2.57;;
8861;SDS011;4799;50.996;4.754;2022-11-15T16:48:50;4.70;;;2.77;;
8861;SDS011;4799;50.996;4.754;2022-11-15T16:51:17;3.17;;;2.30;;
8861;SDS011;4799;50.996;4.754;2022-11-15T16:53:43;2.90;;;2.70;;
8861;SDS011;4799;50.996;4.754;2022-11-15T16:56:26;4.87;;;2.93;;
8861;SDS011;4799;50.996;4.754;2022-11-15T16:58:57;3.10;;;2.70;;
8861;SDS011;4799;50.996;4.754;2022-11-15T17:01:25;3.27;;;2.97;;
8861;SDS011;4799;50.996;4.754;2022-11-15T17:03:52;4.33;;;3.40;;
8861;SDS011;4799;50.996;4.754;2022-11-15T17:06:18;4.83;;;3.10;;
8861;SDS011;4799;50.996;4.754;2022-11-15T17:08:45;5.67;;;3.23;;
8861;SDS011;4799;50.996;4.754;2022-11-15T17:11:16;3.63;;;3.10;;
8861;SDS011;4799;50.996;4.754;2022-11-15T17:13:43;4.53;;;3.17;;
8861;SDS011;4799;50.996;4.754;2022-11-15T17:16:10;3.77;;;3.27;;
8861;SDS011;4799;50.996;4.754;2022-11-15T17:18:41;5.57;;;3.10;;
8861;SDS011;4799;50.996;4.754;2022-11-15T17:21:14;3.70;;;3.30;;
8861;SDS011;4799;50.996;4.754;2022-11-15T17:23:41;4.07;;;3.20;;
8861;SDS011;4799;50.996;4.754;2022-11-15T17:26:08;3.57;;;3.20;;
8861;SDS011;4799;50.996;4.754;2022-11-15T17:28:35;4.73;;;3.57;;
8861;SDS011;4799;50.996;4.754;2022-11-15T17:31:05;4.33;;;3.57;;
8861;SDS011;4799;50.996;4.754;2022-11-15T17:33:35;3.73;;;3.20;;
8861;SDS011;4799;50.996;4.754;2022-11-15T17:36:03;3.50;;;3.20;;